Terminal Aerodrome Forecast
Issued by NWS Pocatello, ID

Home | Current Version | Previous Version | Text Only | Print | Product List | Glossary On
Versions: 1 2 3 4 5 6 7 8 9 10 11 12 13 14 15
522
FTUS45 KPIH 261720
TAFIDA
TAF
KIDA 261720Z 2618/2718 20009KT P6SM VCTS SCT080 BKN110CB
     FM262100 21008KT P6SM -SHRA VCTS SCT060 BKN090CB
     FM270500 VRB06KT P6SM VCSH SCT080 BKN120=

USA.gov is the U.S. government's official web portal to all federal, state and local government web resources and services.